RCTP/TPE METAR and TAF weather

Enter ICAO airport designator
Station Type Date Time Source
RCTP METAR 2021/08/01 17:00 UTC NOAA

RCTP 011700Z 30003KT 260V330 9999 FEW015 BKN100 27/25 Q0997 NOSIG RMK A2946


Station Type Date Time Source
RCTP Decoded METAR 2021/08/01 17:00 UTC NOAA

Chiang Kai Shek, Taiwan (RCTP) 25-05N 121-13E
Aug 01, 2021 - 01:00 PM EDT / 2021.08.01 1700 UTC
Wind: from the WNW (300 degrees) at 3 MPH (3 KT) (direction variable):0
Visibility: greater than 7 mile(s):0
Sky conditions: mostly cloudy
Temperature: 80 F (27 C)
Dew Point: 77 F (25 C)
Relative Humidity: 88%
Pressure (altimeter): 29.44 in. Hg (0997 hPa)
ob: RCTP 011700Z 30003KT 260V330 9999 FEW015 BKN100 27/25 Q0997 NOSIG RMK A2946
cycle: 17

Station Type Date Time Source
RCTP TAF 2021/08/01 18:03 UTC NOAA

TAF RCTP 011700Z 0118/0224 23005KT 9999 FEW015 BKN032
BECMG 0121/0123 26013KT
TEMPO 0201/0207 FEW012 BKN017
TEMPO 0207/0213 26005KT
TEMPO 0214/0220 24005KT FEW008 BKN011
TEMPO 0220/0224 FEW013 BKN020

Example: see airport list